Time;durP1;ratioP1;P1;durP2;ratioP2;P2;SDS_P1;SDS_P2;PMS_P1;PMS_P2;Temp;Humidity;BMP_temperature;BMP_pressure;BME280_temperature;BME280_humidity;BME280_pressure;Samples;Min_cycle;Max_cycle;Signal;HPM_P1;HPM_P2
2023/12/18 00:00:16;;;;;;;7.97;4.53;;;-1.40;99.90;;;;;;5052673;28;20036;-83
2023/12/18 00:02:42;;;;;;;7.85;4.47;;;-1.40;99.90;;;;;;5052327;28;20029;-82
2023/12/18 00:05:09;;;;;;;9.07;5.03;;;-1.40;99.90;;;;;;5052509;28;20033;-82
2023/12/18 00:07:35;;;;;;;8.75;4.65;;;-1.50;99.90;;;;;;5052359;28;20489;-82
2023/12/18 00:10:00;;;;;;;8.27;4.15;;;-1.50;99.90;;;;;;5019425;28;20121;-83
2023/12/18 00:12:26;;;;;;;7.65;4.05;;;-1.50;99.90;;;;;;5035804;28;20572;-83
2023/12/18 00:14:52;;;;;;;8.35;4.00;;;-1.50;99.90;;;;;;5069017;28;20489;-83
2023/12/18 00:17:18;;;;;;;7.18;3.72;;;-1.50;99.90;;;;;;5068709;28;20033;-82
2023/12/18 00:19:44;;;;;;;6.85;3.88;;;-1.40;99.90;;;;;;5060693;28;20115;-83
2023/12/18 00:22:09;;;;;;;8.75;3.63;;;-1.40;99.90;;;;;;5071956;28;20082;-83
2023/12/18 00:24:35;;;;;;;6.05;3.45;;;-1.40;99.90;;;;;;5073381;28;20033;-83
2023/12/18 00:27:01;;;;;;;7.10;3.88;;;-1.40;99.90;;;;;;5055469;28;20028;-82
2023/12/18 00:29:26;;;;;;;9.13;3.60;;;-1.40;99.90;;;;;;5039054;28;20036;-83
2023/12/18 00:31:52;;;;;;;7.70;4.00;;;-1.30;99.90;;;;;;5055741;28;20051;-83
2023/12/18 00:34:18;;;;;;;7.57;3.55;;;-1.30;99.90;;;;;;5060412;28;20029;-83
2023/12/18 00:36:43;;;;;;;6.78;3.60;;;-1.30;99.90;;;;;;5035292;28;20029;-83
2023/12/18 00:39:09;;;;;;;8.55;3.95;;;-1.30;99.90;;;;;;5052153;28;20025;-83
2023/12/18 00:41:35;;;;;;;8.00;3.92;;;-1.20;99.90;;;;;;5069127;28;20025;-83
2023/12/18 00:44:00;;;;;;;8.48;3.95;;;-1.20;99.90;;;;;;5035384;28;20432;-83
2023/12/18 00:46:26;;;;;;;7.63;4.13;;;-1.20;99.90;;;;;;5052118;28;20410;-83
2023/12/18 00:48:52;;;;;;;9.45;4.57;;;-1.20;99.90;;;;;;5052837;28;20536;-83
2023/12/18 00:51:17;;;;;;;8.38;4.43;;;-1.20;99.90;;;;;;5071774;28;20028;-83
2023/12/18 00:53:43;;;;;;;8.73;3.92;;;-1.10;99.90;;;;;;5061767;28;20033;-83
2023/12/18 00:56:09;;;;;;;9.10;3.72;;;-1.10;99.90;;;;;;5051825;28;20100;-83
2023/12/18 00:58:35;;;;;;;9.13;4.15;;;-1.10;99.90;;;;;;5035431;28;20028;-83
2023/12/18 01:01:01;;;;;;;8.82;3.83;;;-1.10;99.90;;;;;;5054939;28;20021;-83
2023/12/18 01:03:26;;;;;;;7.93;3.42;;;-1.00;99.90;;;;;;5055557;28;20416;-83
2023/12/18 01:05:52;;;;;;;5.68;3.17;;;-1.00;99.90;;;;;;5055128;28;20063;-83
2023/12/18 01:08:18;;;;;;;7.70;3.90;;;-1.00;99.90;;;;;;5055502;28;20033;-83
2023/12/18 01:10:43;;;;;;;7.25;3.80;;;-1.00;99.90;;;;;;5039101;28;20032;-83
2023/12/18 01:13:09;;;;;;;7.32;3.67;;;-1.00;99.90;;;;;;5055266;28;20029;-83
2023/12/18 01:15:35;;;;;;;6.70;3.83;;;-1.00;99.90;;;;;;5071633;28;20036;-83
2023/12/18 01:18:00;;;;;;;9.60;5.07;;;-1.00;99.90;;;;;;5055538;28;20033;-83
2023/12/18 01:20:26;;;;;;;11.88;5.22;;;-1.10;99.90;;;;;;5056636;28;20040;-83
2023/12/18 01:22:52;;;;;;;12.32;4.88;;;-1.10;99.90;;;;;;5038428;28;20044;-83
2023/12/18 01:25:18;;;;;;;10.32;4.72;;;-1.10;99.90;;;;;;5055282;28;20033;-83
2023/12/18 01:27:44;;;;;;;8.13;4.18;;;-1.10;99.90;;;;;;5071613;28;20366;-83
2023/12/18 01:30:10;;;;;;;9.05;4.60;;;-1.10;99.90;;;;;;5054762;28;20040;-83
2023/12/18 01:32:36;;;;;;;9.52;4.22;;;-1.10;99.90;;;;;;5038272;28;20389;-83
2023/12/18 01:35:02;;;;;;;8.77;5.22;;;-1.10;99.90;;;;;;5054512;28;20029;-83
2023/12/18 01:37:28;;;;;;;10.00;4.53;;;-1.10;99.90;;;;;;5055950;28;20505;-83
2023/12/18 01:39:53;;;;;;;9.57;5.00;;;-1.20;99.90;;;;;;5030255;28;20044;-83
2023/12/18 01:42:19;;;;;;;9.02;4.00;;;-1.10;99.90;;;;;;5034803;28;20053;-83
2023/12/18 01:44:45;;;;;;;9.40;4.53;;;-1.10;99.90;;;;;;5001959;28;20383;-83
2023/12/18 01:47:11;;;;;;;9.07;5.18;;;-1.10;99.90;;;;;;5017881;28;20033;-83
2023/12/18 01:49:38;;;;;;;9.80;4.90;;;-1.10;99.90;;;;;;5030024;28;20557;-83
2023/12/18 01:52:05;;;;;;;9.32;4.80;;;-1.20;99.90;;;;;;5054405;28;20029;-83
2023/12/18 01:54:31;;;;;;;9.07;4.72;;;-1.20;99.90;;;;;;5054369;28;20021;-83
2023/12/18 01:56:59;;;;;;;8.45;4.20;;;-1.20;99.90;;;;;;5054375;28;20035;-83
2023/12/18 01:59:25;;;;;;;11.13;5.05;;;-1.20;99.90;;;;;;5038030;28;20029;-83
2023/12/18 02:01:51;;;;;;;10.75;5.03;;;-1.20;99.90;;;;;;5054433;28;20029;-83
2023/12/18 02:04:18;;;;;;;10.38;5.22;;;-1.20;99.90;;;;;;5071106;28;20037;-83
2023/12/18 02:06:44;;;;;;;9.50;4.75;;;-1.20;99.90;;;;;;5055426;28;20389;-83
2023/12/18 02:09:11;;;;;;;9.43;4.90;;;-1.10;99.90;;;;;;5070929;28;20036;-83
2023/12/18 02:11:37;;;;;;;9.32;4.38;;;-1.10;99.90;;;;;;5037472;28;20453;-83
2023/12/18 02:14:04;;;;;;;10.18;4.60;;;-1.10;99.90;;;;;;5054351;28;20025;-83
2023/12/18 02:16:29;;;;;;;8.45;4.40;;;-1.10;99.90;;;;;;5054025;28;20032;-83
2023/12/18 02:18:55;;;;;;;7.90;4.57;;;-1.10;99.90;;;;;;5054003;28;20025;-83
2023/12/18 02:21:21;;;;;;;8.52;4.25;;;-1.10;99.90;;;;;;5052933;28;20033;-83
2023/12/18 02:23:48;;;;;;;8.82;4.10;;;-1.10;99.90;;;;;;5020828;28;20036;-83
2023/12/18 02:26:15;;;;;;;7.10;3.83;;;-1.10;99.90;;;;;;5055218;28;20516;-83
2023/12/18 02:28:41;;;;;;;7.07;3.90;;;-1.20;99.90;;;;;;5021146;28;20029;-83
2023/12/18 02:31:09;;;;;;;12.93;5.13;;;-1.20;99.90;;;;;;5039176;28;20497;-83
2023/12/18 02:33:35;;;;;;;8.90;4.53;;;-1.20;99.90;;;;;;5017300;28;20036;-83
2023/12/18 02:36:01;;;;;;;7.97;4.68;;;-1.20;99.90;;;;;;5000941;28;20030;-83
2023/12/18 02:38:27;;;;;;;8.10;4.18;;;-1.20;99.90;;;;;;5001076;28;20033;-83
2023/12/18 02:40:53;;;;;;;10.60;4.70;;;-1.10;99.90;;;;;;5051300;28;20535;-83
2023/12/18 02:43:18;;;;;;;10.18;5.28;;;-1.10;99.90;;;;;;5053456;28;20036;-83
2023/12/18 02:45:44;;;;;;;10.55;5.13;;;-1.10;99.90;;;;;;5036408;28;20029;-83
2023/12/18 02:48:10;;;;;;;9.35;4.60;;;-1.10;99.90;;;;;;5054522;28;20029;-83
2023/12/18 02:50:35;;;;;;;9.13;4.32;;;-1.10;99.90;;;;;;5035911;28;20124;-83
2023/12/18 02:53:01;;;;;;;8.55;4.53;;;-1.10;99.90;;;;;;5056521;28;20025;-83
2023/12/18 02:55:27;;;;;;;9.82;4.55;;;-1.10;99.90;;;;;;5073465;28;20047;-83
2023/12/18 02:57:52;;;;;;;7.40;3.65;;;-1.00;99.90;;;;;;5056864;28;20028;-83
2023/12/18 03:00:18;;;;;;;7.70;3.63;;;-1.10;99.90;;;;;;5073134;28;20036;-83
2023/12/18 03:02:44;;;;;;;9.27;4.50;;;-1.10;99.90;;;;;;5054241;28;20025;-83
2023/12/18 03:05:10;;;;;;;8.88;4.20;;;-1.00;99.90;;;;;;5053569;28;20446;-83
2023/12/18 03:07:36;;;;;;;8.18;4.38;;;-1.00;99.90;;;;;;5036627;28;20029;-83
2023/12/18 03:10:02;;;;;;;12.05;4.45;;;-1.00;99.90;;;;;;5045413;28;20389;-83
2023/12/18 03:12:29;;;;;;;10.68;5.07;;;-1.00;99.90;;;;;;5034593;28;20041;-83
2023/12/18 03:14:55;;;;;;;9.75;4.70;;;-1.00;99.90;;;;;;5033450;28;20032;-83
2023/12/18 03:17:21;;;;;;;9.55;4.65;;;-1.00;99.90;;;;;;5029607;28;20064;-82
2023/12/18 03:19:46;;;;;;;11.52;5.00;;;-1.00;99.90;;;;;;5045296;28;20071;-83
2023/12/18 03:22:13;;;;;;;10.30;5.13;;;-1.10;99.90;;;;;;5072823;28;20041;-83
2023/12/18 03:24:40;;;;;;;7.47;3.78;;;-1.10;99.90;;;;;;5056035;28;20039;-83
2023/12/18 03:27:06;;;;;;;8.00;4.18;;;-1.10;99.90;;;;;;5072846;28;20040;-83
2023/12/18 03:29:31;;;;;;;8.48;4.18;;;-1.10;99.90;;;;;;5074326;28;20023;-83
2023/12/18 03:31:57;;;;;;;7.55;3.92;;;-1.00;99.90;;;;;;5056107;28;20463;-83
2023/12/18 03:34:23;;;;;;;9.30;3.75;;;-1.00;99.90;;;;;;5045995;28;20079;-83
2023/12/18 03:36:48;;;;;;;10.15;4.22;;;-1.00;99.90;;;;;;5035965;28;20070;-83
2023/12/18 03:39:14;;;;;;;8.77;4.32;;;-1.00;99.90;;;;;;5052638;28;20131;-83
2023/12/18 03:41:40;;;;;;;8.43;3.70;;;-1.00;99.90;;;;;;5052497;28;20028;-83
2023/12/18 03:44:05;;;;;;;8.02;4.30;;;-1.10;99.90;;;;;;5052565;28;20054;-83
2023/12/18 03:46:31;;;;;;;10.80;4.85;;;-1.10;99.90;;;;;;5052323;28;20068;-83
2023/12/18 03:48:57;;;;;;;9.70;4.25;;;-1.10;99.90;;;;;;5054555;28;20021;-83
2023/12/18 03:51:23;;;;;;;8.05;4.22;;;-1.10;99.90;;;;;;5050489;28;20389;-83
2023/12/18 03:53:48;;;;;;;7.57;3.78;;;-1.10;99.90;;;;;;5036490;28;20076;-83
2023/12/18 03:56:14;;;;;;;7.80;3.70;;;-1.10;99.90;;;;;;5036503;28;20523;-84
2023/12/18 03:58:40;;;;;;;7.65;3.78;;;-1.10;99.90;;;;;;5036628;28;20032;-83
2023/12/18 04:01:05;;;;;;;7.50;3.95;;;-1.10;99.90;;;;;;5035663;28;20025;-83
2023/12/18 04:03:31;;;;;;;6.85;3.80;;;-1.10;99.90;;;;;;5036030;28;20035;-83
2023/12/18 04:05:57;;;;;;;7.20;4.03;;;-1.10;99.90;;;;;;5052475;28;20397;-83
2023/12/18 04:08:22;;;;;;;8.05;3.90;;;-1.10;99.90;;;;;;5035478;28;20029;-83
2023/12/18 04:10:48;;;;;;;7.50;4.45;;;-1.00;99.90;;;;;;5035566;28;20111;-84
2023/12/18 04:13:14;;;;;;;8.55;4.13;;;-1.10;99.90;;;;;;5052497;28;20029;-84
2023/12/18 04:15:40;;;;;;;9.02;4.63;;;-1.00;99.90;;;;;;5051888;28;20033;-83
2023/12/18 04:18:08;;;;;;;9.85;5.38;;;-1.00;99.90;;;;;;5052152;28;20033;-83
2023/12/18 04:20:34;;;;;;;8.00;4.40;;;-1.00;99.90;;;;;;5053548;28;20055;-83
2023/12/18 04:23:00;;;;;;;7.30;4.07;;;-1.00;99.90;;;;;;5051879;28;20037;-83
2023/12/18 04:25:25;;;;;;;6.80;3.80;;;-1.00;99.90;;;;;;5052136;28;20045;-83
2023/12/18 04:27:52;;;;;;;7.10;3.65;;;-1.00;99.90;;;;;;5051505;28;20100;-83
2023/12/18 04:30:18;;;;;;;6.55;3.65;;;-1.00;99.90;;;;;;5035799;28;20040;-83
2023/12/18 04:32:43;;;;;;;5.85;3.45;;;-1.00;99.90;;;;;;5019508;28;20025;-83
2023/12/18 04:35:09;;;;;;;6.38;3.08;;;-1.00;99.90;;;;;;5053393;28;20025;-83
2023/12/18 04:37:35;;;;;;;6.22;3.30;;;-1.00;99.90;;;;;;5039370;28;20393;-83
2023/12/18 04:40:03;;;;;;;7.13;3.50;;;-1.00;99.90;;;;;;5055835;28;20025;-83
2023/12/18 04:42:28;;;;;;;6.90;3.38;;;-1.00;99.90;;;;;;5058019;28;20393;-83
2023/12/18 04:44:54;;;;;;;8.02;4.03;;;-1.10;99.90;;;;;;5055574;28;20037;-83
2023/12/18 04:47:20;;;;;;;8.15;3.53;;;-1.10;99.90;;;;;;5039058;28;20029;-83
2023/12/18 04:49:47;;;;;;;5.88;3.28;;;-1.20;99.90;;;;;;5065916;28;20036;-83
2023/12/18 04:52:12;;;;;;;9.23;4.38;;;-1.20;99.90;;;;;;5042554;28;20031;-83
2023/12/18 04:54:38;;;;;;;8.95;3.97;;;-1.20;99.90;;;;;;5059070;28;20029;-83
2023/12/18 04:57:04;;;;;;;6.78;4.03;;;-1.20;99.90;;;;;;5059319;28;20393;-83
2023/12/18 04:59:30;;;;;;;6.32;3.97;;;-1.20;99.90;;;;;;5028713;28;20044;-83
2023/12/18 05:01:56;;;;;;;8.13;4.18;;;-1.20;99.90;;;;;;5039018;28;20029;-83
2023/12/18 05:04:21;;;;;;;7.97;3.90;;;-1.20;99.90;;;;;;5039016;28;20029;-83
2023/12/18 05:06:47;;;;;;;7.43;4.38;;;-1.20;99.90;;;;;;5038686;28;20040;-83
2023/12/18 05:09:12;;;;;;;7.82;4.05;;;-1.20;99.90;;;;;;5055505;28;20029;-83
2023/12/18 05:11:39;;;;;;;7.80;4.30;;;-1.20;99.90;;;;;;5055511;28;20071;-83
2023/12/18 05:14:04;;;;;;;7.65;4.28;;;-1.20;99.90;;;;;;5071752;28;20029;-83
2023/12/18 05:16:30;;;;;;;10.55;4.82;;;-1.10;99.90;;;;;;5056255;28;20100;-83
2023/12/18 05:18:56;;;;;;;9.00;4.68;;;-1.10;99.90;;;;;;5058237;28;20052;-83
2023/12/18 05:21:22;;;;;;;8.35;4.20;;;-1.20;99.90;;;;;;5075400;28;20021;-83
2023/12/18 05:23:49;;;;;;;9.60;4.63;;;-1.20;99.90;;;;;;5075541;28;20048;-83
2023/12/18 05:26:15;;;;;;;7.55;4.28;;;-1.20;99.90;;;;;;5075588;28;20021;-83
2023/12/18 05:28:41;;;;;;;9.18;5.32;;;-1.30;99.90;;;;;;5076427;28;20028;-83
2023/12/18 05:31:10;;;;;;;9.60;5.10;;;-1.30;99.90;;;;;;5054106;28;20035;-83
2023/12/18 05:33:36;;;;;;;10.23;5.00;;;-1.30;99.90;;;;;;5056425;28;20052;-83
2023/12/18 05:36:02;;;;;;;9.90;5.53;;;-1.20;99.90;;;;;;5055676;28;20032;-83
2023/12/18 05:38:28;;;;;;;11.18;6.30;;;-1.20;99.90;;;;;;5022173;28;20455;-83
2023/12/18 05:40:54;;;;;;;10.45;5.13;;;-1.20;99.90;;;;;;5035064;28;20033;-83
2023/12/18 05:43:19;;;;;;;10.00;5.53;;;-1.20;99.90;;;;;;5038448;28;20106;-83
2023/12/18 05:45:45;;;;;;;8.57;4.72;;;-1.20;99.90;;;;;;5038503;28;20033;-83
2023/12/18 05:48:11;;;;;;;10.15;5.18;;;-1.20;99.90;;;;;;5056506;28;20025;-83
2023/12/18 05:50:38;;;;;;;10.05;5.03;;;-1.20;99.90;;;;;;5086308;28;20405;-83
2023/12/18 05:53:04;;;;;;;8.88;4.70;;;-1.20;99.90;;;;;;5054359;28;20052;-83
2023/12/18 05:55:30;;;;;;;7.68;4.10;;;-1.20;99.90;;;;;;5053418;28;20033;-83
2023/12/18 05:57:55;;;;;;;9.77;4.90;;;-1.20;99.90;;;;;;5069665;28;20029;-83
2023/12/18 06:00:21;;;;;;;10.25;5.00;;;-1.20;99.90;;;;;;5070605;28;20029;-83
2023/12/18 06:02:47;;;;;;;8.38;4.43;;;-1.30;99.90;;;;;;5068288;28;20119;-83
2023/12/18 06:05:12;;;;;;;9.23;4.43;;;-1.30;99.90;;;;;;5070394;28;20033;-83
2023/12/18 06:07:40;;;;;;;8.18;4.30;;;-1.30;99.90;;;;;;5071211;28;20503;-83
2023/12/18 06:10:06;;;;;;;9.30;4.35;;;-1.30;99.90;;;;;;5036709;28;20021;-83
2023/12/18 06:12:32;;;;;;;11.88;5.53;;;-1.30;99.90;;;;;;5070891;28;20531;-83
2023/12/18 06:14:58;;;;;;;9.63;4.22;;;-1.30;99.90;;;;;;5086540;28;20029;-83
2023/12/18 06:17:23;;;;;;;10.40;5.07;;;-1.30;99.90;;;;;;5069333;28;20036;-83
2023/12/18 06:19:49;;;;;;;9.18;4.53;;;-1.30;99.90;;;;;;5061996;28;20096;-83
2023/12/18 06:22:15;;;;;;;8.07;3.70;;;-1.30;99.90;;;;;;5072163;28;20037;-83
2023/12/18 06:24:41;;;;;;;8.27;4.00;;;-1.30;99.90;;;;;;5090559;28;20439;-83
2023/12/18 06:27:07;;;;;;;7.90;3.75;;;-1.30;99.90;;;;;;5079039;28;20024;-82
2023/12/18 06:29:32;;;;;;;7.90;4.28;;;-1.30;99.90;;;;;;5054857;28;20021;-82
2023/12/18 06:31:58;;;;;;;9.52;4.07;;;-1.30;99.90;;;;;;5037234;28;20029;-82
2023/12/18 06:34:24;;;;;;;15.05;5.97;;;-1.30;99.90;;;;;;5053910;28;20079;-82
2023/12/18 06:36:49;;;;;;;12.32;6.15;;;-1.30;99.90;;;;;;5036949;28;20090;-82
2023/12/18 06:39:15;;;;;;;10.75;5.45;;;-1.30;99.90;;;;;;5037216;28;20566;-82
2023/12/18 06:41:41;;;;;;;12.88;5.72;;;-1.30;99.90;;;;;;5037122;28;20550;-82
2023/12/18 06:44:06;;;;;;;14.90;7.15;;;-1.30;99.90;;;;;;5070617;28;20040;-82
2023/12/18 06:46:34;;;;;;;15.57;7.50;;;-1.30;99.90;;;;;;5070129;28;20074;-82
2023/12/18 06:49:01;;;;;;;11.25;6.22;;;-1.30;99.90;;;;;;5055597;28;20550;-82
2023/12/18 06:51:26;;;;;;;16.92;8.15;;;-1.20;99.90;;;;;;5073619;28;20024;-82
2023/12/18 06:53:52;;;;;;;14.48;7.82;;;-1.30;99.90;;;;;;5074848;28;20043;-82
2023/12/18 06:56:18;;;;;;;13.60;6.25;;;-1.20;99.90;;;;;;5056852;28;20033;-82
2023/12/18 06:58:44;;;;;;;12.05;6.07;;;-1.30;99.90;;;;;;5056015;28;20036;-82
2023/12/18 07:01:09;;;;;;;13.73;6.57;;;-1.30;99.90;;;;;;5073219;28;20104;-84
2023/12/18 07:03:35;;;;;;;12.30;6.07;;;-1.30;99.90;;;;;;5073789;28;20480;-82
2023/12/18 07:06:01;;;;;;;9.70;5.25;;;-1.30;99.90;;;;;;5056876;28;20028;-82
2023/12/18 07:08:29;;;;;;;10.88;5.43;;;-1.30;99.90;;;;;;5073031;28;20477;-82
2023/12/18 07:10:56;;;;;;;11.77;5.15;;;-1.30;99.90;;;;;;5023740;28;20120;-82
2023/12/18 07:13:22;;;;;;;10.27;5.10;;;-1.30;99.90;;;;;;5054500;28;20108;-82
2023/12/18 07:15:48;;;;;;;10.32;5.35;;;-1.30;99.90;;;;;;5053111;28;20025;-82
2023/12/18 07:18:13;;;;;;;10.13;4.43;;;-1.30;99.90;;;;;;5069568;28;20441;-82
2023/12/18 07:20:40;;;;;;;7.93;4.03;;;-1.30;99.90;;;;;;5052342;28;20115;-82
2023/12/18 07:23:07;;;;;;;8.70;4.38;;;-1.40;99.90;;;;;;5072852;28;20074;-82
2023/12/18 07:25:32;;;;;;;10.57;4.63;;;-1.40;99.90;;;;;;5056243;28;20048;-82
2023/12/18 07:27:58;;;;;;;11.80;5.78;;;-1.30;99.90;;;;;;5072793;28;20451;-82
2023/12/18 07:30:24;;;;;;;10.40;5.30;;;-1.30;99.90;;;;;;5063479;28;20363;-82
2023/12/18 07:32:50;;;;;;;10.02;5.20;;;-1.30;99.90;;;;;;5052915;28;20029;-82
2023/12/18 07:35:16;;;;;;;8.93;4.68;;;-1.30;99.90;;;;;;5036151;28;20036;-82
2023/12/18 07:37:41;;;;;;;10.70;5.07;;;-1.30;99.90;;;;;;5052582;28;20033;-82
2023/12/18 07:40:08;;;;;;;12.15;5.30;;;-1.20;99.90;;;;;;5019612;28;20036;-82
2023/12/18 07:42:33;;;;;;;12.40;6.30;;;-1.20;99.90;;;;;;5052901;28;20406;-82
2023/12/18 07:44:59;;;;;;;11.60;6.22;;;-1.20;99.90;;;;;;5053991;28;20039;-81
2023/12/18 07:47:25;;;;;;;11.65;6.00;;;-1.20;99.90;;;;;;5052381;28;20033;-82
2023/12/18 07:49:50;;;;;;;13.68;6.60;;;-1.20;99.90;;;;;;5062536;28;20020;-82
2023/12/18 07:52:16;;;;;;;13.50;6.22;;;-1.20;99.90;;;;;;5039168;28;20468;-82
2023/12/18 07:54:42;;;;;;;17.00;8.40;;;-1.20;99.90;;;;;;5055972;28;20029;-82
2023/12/18 07:57:08;;;;;;;13.80;6.72;;;-1.20;99.90;;;;;;5055834;28;20078;-82
2023/12/18 07:59:39;;;;;;;12.48;6.78;;;-1.20;99.90;;;;;;5055898;28;20039;-82
2023/12/18 08:02:08;;;;;;;;;;;-1.20;99.90;;;;;;5056846;28;20033;-82
2023/12/18 08:04:33;;;;;;;13.85;6.85;;;-1.20;99.90;;;;;;5072477;28;19910;-82
2023/12/18 08:06:59;;;;;;;13.93;7.90;;;-1.20;99.90;;;;;;5055368;28;20119;-82
2023/12/18 08:09:26;;;;;;;22.05;8.82;;;-1.20;99.90;;;;;;5053619;28;20516;-82
2023/12/18 08:11:52;;;;;;;16.50;8.75;;;-1.20;99.90;;;;;;5042652;28;20417;-82
2023/12/18 08:14:18;;;;;;;22.20;8.55;;;-1.20;99.90;;;;;;5076005;28;20024;-82
2023/12/18 08:16:43;;;;;;;17.63;8.52;;;-1.20;99.90;;;;;;5058840;28;20029;-82
2023/12/18 08:19:09;;;;;;;17.52;8.15;;;-1.10;99.90;;;;;;5062547;28;20028;-82
2023/12/18 08:21:35;;;;;;;16.50;8.60;;;-1.10;99.90;;;;;;5062048;28;20025;-82
2023/12/18 08:24:01;;;;;;;21.25;8.65;;;-1.10;99.90;;;;;;5079199;28;20039;-82
2023/12/18 08:26:26;;;;;;;14.63;7.97;;;-1.00;99.90;;;;;;5062414;28;20028;-82
2023/12/18 08:28:53;;;;;;;18.40;8.52;;;-1.00;99.90;;;;;;5062600;28;20039;-82
2023/12/18 08:31:18;;;;;;;13.38;7.43;;;-1.00;99.90;;;;;;5045164;28;20397;-82
2023/12/18 08:33:44;;;;;;;16.50;8.57;;;-1.00;99.90;;;;;;5042227;28;20025;-82
2023/12/18 08:36:10;;;;;;;16.08;8.80;;;-1.00;99.90;;;;;;5042345;28;20025;-82
2023/12/18 08:38:35;;;;;;;17.08;8.43;;;-1.00;99.90;;;;;;5042113;28;20124;-82
2023/12/18 08:41:01;;;;;;;14.45;7.18;;;-1.00;99.90;;;;;;5042151;28;20029;-82
2023/12/18 08:43:27;;;;;;;13.13;6.35;;;-1.00;99.90;;;;;;5058638;28;20032;-82
2023/12/18 08:45:52;;;;;;;10.25;5.72;;;-1.00;99.90;;;;;;5058798;28;20029;-82
2023/12/18 08:48:18;;;;;;;11.55;5.90;;;-1.00;99.90;;;;;;5058374;28;20131;-82
2023/12/18 08:50:44;;;;;;;13.50;6.10;;;-1.00;99.90;;;;;;5075290;28;20028;-82
2023/12/18 08:53:10;;;;;;;13.93;6.82;;;-1.00;99.90;;;;;;5061840;28;20036;-82
2023/12/18 08:55:39;;;;;;;12.13;5.40;;;-1.00;99.90;;;;;;5079746;28;20472;-82
2023/12/18 08:58:09;;;;;;;10.80;5.05;;;-1.10;99.90;;;;;;5079849;28;20021;-82
2023/12/18 09:00:35;;;;;;;9.30;5.10;;;-1.00;99.90;;;;;;5078572;28;20028;-82
2023/12/18 09:03:01;;;;;;;8.77;4.22;;;-1.00;99.90;;;;;;5078466;28;20032;-82
2023/12/18 09:05:28;;;;;;;6.60;3.78;;;-1.00;99.90;;;;;;5078690;28;20032;-82
2023/12/18 09:07:54;;;;;;;6.38;3.25;;;-1.00;99.90;;;;;;5078458;28;20026;-82
2023/12/18 09:10:22;;;;;;;6.70;3.58;;;-0.90;99.90;;;;;;5033412;28;20028;-82
2023/12/18 09:12:51;;;;;;;6.55;3.63;;;-0.90;99.90;;;;;;5042336;28;20477;-82
2023/12/18 09:15:17;;;;;;;6.22;3.25;;;-0.90;99.90;;;;;;5042565;28;20504;-82
2023/12/18 09:17:43;;;;;;;8.55;3.70;;;-0.90;99.90;;;;;;5058194;28;20033;-82
2023/12/18 09:20:09;;;;;;;5.03;3.20;;;-0.90;99.90;;;;;;5052721;28;20032;-82
2023/12/18 09:22:35;;;;;;;6.78;3.55;;;-0.90;99.90;;;;;;5036930;28;20065;-82
2023/12/18 09:25:01;;;;;;;7.07;3.83;;;-0.80;99.90;;;;;;5018925;28;20029;-82
2023/12/18 09:27:27;;;;;;;9.23;4.38;;;-0.90;99.90;;;;;;5035233;28;20029;-82
2023/12/18 09:29:53;;;;;;;7.07;3.97;;;-0.80;99.90;;;;;;5040363;28;20385;-82
2023/12/18 09:32:18;;;;;;;8.48;4.50;;;-0.80;99.90;;;;;;5022055;28;20036;-82
2023/12/18 09:34:44;;;;;;;8.23;4.70;;;-0.70;99.90;;;;;;5038405;28;20385;-82
2023/12/18 09:37:09;;;;;;;8.55;4.07;;;-0.70;99.90;;;;;;5021581;28;20079;-82
2023/12/18 09:39:35;;;;;;;12.43;4.90;;;-0.70;99.90;;;;;;5037832;28;20041;-82
2023/12/18 09:42:02;;;;;;;9.32;5.68;;;-0.60;99.90;;;;;;5038434;28;20067;-82
2023/12/18 09:44:33;;;;;;;7.43;4.25;;;-0.60;99.90;;;;;;5060761;28;20033;-82
2023/12/18 09:46:59;;;;;;;7.75;3.63;;;-0.50;99.90;;;;;;5054197;28;20114;-82
2023/12/18 09:49:25;;;;;;;8.68;4.72;;;-0.50;99.90;;;;;;5055777;28;20017;-82
2023/12/18 09:51:54;;;;;;;7.55;3.92;;;-0.50;99.90;;;;;;5070921;28;20052;-82
2023/12/18 09:54:24;;;;;;;6.35;3.58;;;-0.50;99.90;;;;;;5054247;28;20116;-82
2023/12/18 09:56:51;;;;;;;7.90;4.25;;;-0.50;99.90;;;;;;5055711;28;20032;-82
2023/12/18 09:59:17;;;;;;;8.95;4.45;;;-0.40;99.90;;;;;;5054553;28;20039;-82
2023/12/18 10:01:45;;;;;;;7.38;4.63;;;-0.30;99.90;;;;;;5054036;28;20079;-82
2023/12/18 10:04:11;;;;;;;7.00;4.65;;;-0.30;99.90;;;;;;5037788;28;20374;-82
2023/12/18 10:06:37;;;;;;;7.75;4.70;;;-0.20;99.90;;;;;;5021722;28;20040;-82
2023/12/18 10:09:09;;;;;;;7.50;4.95;;;-0.10;99.90;;;;;;5036884;28;20076;-82
2023/12/18 10:11:34;;;;;;;9.60;5.55;;;0.00;99.90;;;;;;5055669;28;20061;-82
2023/12/18 10:14:00;;;;;;;9.15;5.38;;;0.00;99.90;;;;;;5054102;28;20056;-82
2023/12/18 10:16:26;;;;;;;8.38;4.55;;;0.10;99.90;;;;;;5037819;28;20033;-82
2023/12/18 10:18:55;;;;;;;9.20;4.95;;;0.10;99.90;;;;;;5038684;28;20025;-82
2023/12/18 10:21:24;;;;;;;7.90;4.90;;;0.10;99.90;;;;;;5067812;28;20116;-82
2023/12/18 10:23:53;;;;;;;9.20;5.57;;;0.20;99.90;;;;;;5053877;28;20039;-82
2023/12/18 10:26:20;;;;;;;8.98;5.78;;;0.20;99.90;;;;;;5055765;28;20029;-82
2023/12/18 10:28:45;;;;;;;11.95;6.30;;;0.20;99.90;;;;;;5053750;28;20036;-82
2023/12/18 10:31:11;;;;;;;9.43;5.45;;;0.30;99.90;;;;;;5037733;28;20111;-82
2023/12/18 10:33:38;;;;;;;10.43;5.30;;;0.30;99.90;;;;;;5052713;28;20032;-82
2023/12/18 10:36:08;;;;;;;11.20;5.75;;;0.40;99.90;;;;;;5020856;28;20424;-82
2023/12/18 10:38:36;;;;;;;11.82;6.50;;;0.50;99.90;;;;;;5053577;28;20083;-82
2023/12/18 10:41:04;;;;;;;12.35;6.22;;;0.50;99.90;;;;;;5037064;28;20554;-82
2023/12/18 10:43:32;;;;;;;14.88;6.63;;;0.50;99.90;;;;;;5054910;28;20033;-82
2023/12/18 10:46:02;;;;;;;12.48;6.15;;;0.60;99.90;;;;;;5033737;28;20036;-82
2023/12/18 10:48:31;;;;;;;11.57;6.38;;;0.60;99.90;;;;;;5042777;28;20025;-82
2023/12/18 10:50:57;;;;;;;12.30;6.22;;;0.70;99.90;;;;;;5085354;28;20025;-82
2023/12/18 10:53:24;;;;;;;13.05;6.30;;;0.80;99.90;;;;;;5053347;28;20025;-82
2023/12/18 10:55:52;;;;;;;13.07;6.13;;;0.90;99.90;;;;;;5053779;28;20136;-82
2023/12/18 10:58:18;;;;;;;11.35;6.25;;;0.90;99.90;;;;;;5037095;28;20124;-82
2023/12/18 11:00:44;;;;;;;10.95;6.43;;;0.90;99.90;;;;;;5037050;28;20420;-82
2023/12/18 11:03:11;;;;;;;14.23;7.72;;;1.00;99.90;;;;;;5052953;28;20086;-82
2023/12/18 11:05:37;;;;;;;12.85;6.22;;;1.10;99.90;;;;;;5036992;28;20032;-82
2023/12/18 11:08:04;;;;;;;16.65;7.20;;;1.10;99.90;;;;;;5036443;28;20032;-82
2023/12/18 11:10:30;;;;;;;10.98;6.30;;;1.10;99.90;;;;;;5052210;28;20033;-82
2023/12/18 11:13:06;;;;;;;10.32;6.30;;;1.20;99.90;;;;;;5053406;28;20164;-82
2023/12/18 11:15:44;;;;;;;14.60;6.35;;;1.20;99.90;;;;;;5053777;28;20047;-82
2023/12/18 11:18:43;;;;;;;9.73;6.47;;;1.20;99.90;;;;;;5053178;28;20112;-82
2023/12/18 11:21:08;;;;;;;12.57;6.57;;;1.30;99.90;;;;;;5074417;28;20181;-82
2023/12/18 11:23:41;;;;;;;12.25;6.25;;;1.40;99.90;;;;;;5056302;28;20392;-82
2023/12/18 11:26:12;;;;;;;10.15;6.28;;;1.40;99.90;;;;;;5063239;28;20516;-82
2023/12/18 11:28:38;;;;;;;12.63;6.35;;;1.50;99.90;;;;;;5054294;28;20037;-82
2023/12/18 11:31:06;;;;;;;12.00;6.55;;;1.50;99.90;;;;;;5036725;28;20481;-82
2023/12/18 11:33:32;;;;;;;12.90;6.18;;;1.50;99.90;;;;;;5020205;28;20029;-82
2023/12/18 11:35:57;;;;;;;12.27;6.75;;;1.60;99.90;;;;;;5054389;28;20162;-82
2023/12/18 11:38:24;;;;;;;11.05;7.03;;;1.60;99.90;;;;;;5052914;28;20507;-82
2023/12/18 11:40:55;;;;;;;11.35;6.97;;;1.70;99.90;;;;;;5054348;28;20017;-82
2023/12/18 11:43:38;;;;;;;14.35;6.70;;;1.70;99.90;;;;;;5053221;28;20524;-82
2023/12/18 11:46:07;;;;;;;10.68;6.07;;;1.80;99.90;;;;;;5052335;28;20041;-82
2023/12/18 11:48:33;;;;;;;10.60;6.47;;;1.80;99.90;;;;;;5052588;28;20021;-82
2023/12/18 11:51:01;;;;;;;13.27;7.00;;;1.80;99.90;;;;;;5056540;28;20036;-82
2023/12/18 11:53:26;;;;;;;15.77;8.00;;;1.90;99.90;;;;;;5053194;28;20021;-82
2023/12/18 11:55:53;;;;;;;14.27;7.90;;;1.90;99.90;;;;;;5054192;28;20074;-82
2023/12/18 11:58:21;;;;;;;12.85;7.20;;;2.00;99.90;;;;;;5053739;28;20043;-82
2023/12/18 12:00:47;;;;;;;12.80;7.40;;;2.00;99.90;;;;;;5054049;28;20033;-82
2023/12/18 12:03:13;;;;;;;15.07;7.30;;;2.00;99.90;;;;;;5054508;28;20443;-82
2023/12/18 12:05:40;;;;;;;12.30;6.68;;;2.10;99.90;;;;;;5055013;28;20036;-82
2023/12/18 12:08:07;;;;;;;8.95;5.40;;;2.10;99.90;;;;;;5039213;28;20033;-82
2023/12/18 12:10:43;;;;;;;10.27;5.38;;;2.10;99.90;;;;;;5043377;28;20052;-83
2023/12/18 12:13:23;;;;;;;8.35;5.30;;;2.20;99.90;;;;;;5056339;28;20447;-82
2023/12/18 12:15:52;;;;;;;9.68;4.97;;;2.30;99.90;;;;;;5053074;28;20086;-82
2023/12/18 12:18:17;;;;;;;8.27;5.60;;;2.40;99.90;;;;;;5054853;28;20033;-82
2023/12/18 12:20:44;;;;;;;17.13;7.65;;;2.40;99.90;;;;;;5053323;28;20397;-82
2023/12/18 12:23:09;;;;;;;13.85;6.80;;;2.40;99.90;;;;;;5051974;28;20065;-82
2023/12/18 12:25:35;;;;;;;13.80;7.80;;;2.40;99.90;;;;;;5032280;28;20033;-82
2023/12/18 12:28:01;;;;;;;12.05;7.90;;;2.50;99.90;;;;;;5052105;28;20041;-82
2023/12/18 12:30:28;;;;;;;12.05;7.30;;;2.50;99.90;;;;;;5068737;28;20025;-82
2023/12/18 12:32:59;;;;;;;12.65;7.63;;;2.60;99.90;;;;;;5051467;28;20033;-82
2023/12/18 12:35:26;;;;;;;14.73;8.57;;;2.70;99.90;;;;;;5035682;28;20025;-82
2023/12/18 12:37:56;;;;;;;12.15;8.40;;;2.70;99.90;;;;;;5051748;28;20494;-82
2023/12/18 12:40:23;;;;;;;17.13;9.48;;;2.80;99.90;;;;;;5051506;28;20120;-82